Portada
METAR-TAF:

METAR-TAF

Aeropuertos :

Nimes, Francia

latitud: 43-45N, longitud: 004-25E, altitud: 94 m

Observación

El informe se hizo hace 25 minutos, a las 02:30 UTC
Viento 6 kt del norte
Temperatura 5°C
Humedad 81%
Presión 1021 hPa
Visibilidad 10 km o más
Escasas nubes a una altura de 4400 ft

METAR: LFTW 180230Z AUTO 35006KT 9999 FEW044 05/02 Q1021 NOSIG

Hora: 03:55 (02:55 UTC)

Pronóstico

El informe se hizo hace 55 minutos, a las 02:00 UTC
Pronóstico válido del 18 a las 03 UTC al 19 a las 03 UTC
Viento 12 kt del norte
Visibilidad 10 km o más
sin nubes por debajo de 1500 m y sin presencia de cumulonimbus.
Evolucionando progresivamente
del 19 a las 01 UTC al 19 a las 03 UTC
Cielo nuboso a una altura de 4000 ft

TAF: LFTW 180200Z 1803/1903 35012KT CAVOK BECMG 1901/1903 BKN040

Observaciones y pronósticos meteorológicos de más de 4000 aeropuertos (mensajes METAR y TAF).

Los puntos amarillos y rojos representan las estaciones disponibles.

Ponga el ratón en el punto deseado para ver el nombre de la estación.

Haga clic para ver las observaciones y los pronósticos meteorológicos.

Para cambiar el mapa : haga clic en los botones verdes con una cruz de color negro para hacer un zoom, en el botón verde con un guión para alejar o en las flechas verdes para mapas adyacentes.


METAR-TAF: